< < Back
Terminal Aerodrome Forecast


Current Version              Previous Versions:   1  2  3  4  5  6  7  8  9  

Terminal Aerodrome Forecast

940
FTUS42 KCHS 171100
TAFCHS
TAF
KCHS 171132Z 1712/1812 04004KT P6SM SCT005 SCT020
     FM171400 VRB06KT P6SM SCT015 BKN035
     FM171800 11006KT P6SM VCSH SCT025 BKN200
     FM180200 VRB03KT P6SM BKN050=

Latest METAR

133
SAUS80 KWBC 171706
MTRCHS
METAR KCHS 171656Z VRB05KT 10SM SCT030 BKN040 BKN250 29/21 A2991 RMK AO2
SLP129 T02890211


USA.gov is the U.S. government's official web portal to all federal, state and local government web resources and services.